岡山グライダークラブ活動状況掲示板

岡山グライダークラブ
岡山市浦安南町639-1 岡南飛行場
 使用機:シャイベ式 SF25C型 ファルケ   JA2330
      ヴァレンティン式17E型 タイフーン  JA2342
 練習日:毎日曜日  クラブルーム:電話 086-265-1810
この掲示板は岡山グライダークラブの活動状況をお知らせする掲示板です。
!!!この掲示板は投稿規制をしています。!!!
クラブ関連各種情報は 岡山グライダークラブクラブルーム      を       .
  ブリーフイング情報は  岡山グライダークラブブリーフィングルーム  をご覧下さい。 .
※写真はクリックすると拡大して見ることが出来ます。
岡南飛行場へのアクセス等は 岡南飛行場管理事務所 をご覧ください。
クラブの ホームページ ができました。

!!!当クラブの見学等を希望される方は こちら をご覧ください!!!

 
01月31日
by OGC at 2021/1/31(日) 12:09:15 No.20210131120444  削除コメント
1024 x 768 x 91,040バイト
No.1

01月31日
本日のリモート参加者
  会員      12名
  その他      0名


@本日の様子






METAR
RJBK 310000Z 25005KT 15KM FEW030 05/01 Q1030 A3043
RJOB 310000Z 25005KT CAVOK 06/01 Q1029
RJOT 310000Z 25004KT 9999 FEW025 07/04 Q1029
RJOA 310000Z 30003KT 9999 FEW030 06/01 Q1029
TAF
RJOB 302308Z 3100/0106 30005KT 9999 FEW025 SCT045
  BECMG 3109/3111 02005KT
  BECMG 0100/0103 20007KT
RJOT 302305Z 3100/0106 28008KT 9999 FEW030
  BECMG 3108/3110 15005KT
  BECMG 0100/0103 23010KT
RJOA 302307Z 3100/0106 30005KT 9999 FEW030
  BECMG 3118/3121 03006KT
  BECMG 0100/0103 21010KT

本日、第2回リモートブリーフィングを開催しました。

次週は「google earth,Windy等の上手な利用の仕方」を予定しています。


集合 10:00 解散    10:30

本日のフライトはありません。

    << 戻る || ホームページ || 最新の掲示板へ